DAL1750 CYYZ-KDTW
Flight info
| Callsign | DAL1750 |
|---|---|
| Flight time | 0h 41m |
| Altitude | 30000 |
| Route | ANCOL5 GGUCE TPGUN2 |
| Aircraft | A20N/M-SDE2E3FGHIRWXY/LB1 |
Departure
| Time | 2026-05-05 01:15 |
|---|---|
| Airport | Toronto Pearson International Airport (CYYZ) |
Arrival
| Time | 2026-05-05 01:56 |
|---|---|
| Airport | Detroit Metropolitan Wayne County Airport (KDTW) |
| Time | Latitude | Longitude | Altitude | Speed | Heading |
|---|---|---|---|---|---|
| 2026-05-05 00:29 | 43.67957 | -79.63729 | 570 ft | 0 kts | 83° |
| 2026-05-05 00:56 | 43.67957 | -79.63732 | 570 ft | 0 kts | 91° |
| 2026-05-05 00:56 | 43.67956 | -79.63742 | 570 ft | 2 kts | 61° |
| 2026-05-05 00:56 | 43.67945 | -79.63758 | 573 ft | 2 kts | 40° |
| 2026-05-05 00:57 | 43.67931 | -79.63767 | 574 ft | 2 kts | 7° |
| 2026-05-05 00:57 | 43.67915 | -79.63768 | 578 ft | 2 kts | 356° |
| 2026-05-05 00:57 | 43.67898 | -79.63767 | 574 ft | 2 kts | 349° |
| 2026-05-05 00:57 | 43.67888 | -79.63763 | 573 ft | 0 kts | 316° |
| 2026-05-05 01:02 | 43.67909 | -79.63792 | 574 ft | 17 kts | 314° |
| 2026-05-05 01:03 | 43.67942 | -79.63839 | 569 ft | 0 kts | 314° |
| 2026-05-05 01:03 | 43.68035 | -79.63868 | 568 ft | 24 kts | 22° |
| 2026-05-05 01:03 | 43.68118 | -79.63763 | 566 ft | 8 kts | 46° |
| 2026-05-05 01:03 | 43.68189 | -79.63665 | 567 ft | 22 kts | 49° |
| 2026-05-05 01:04 | 43.68262 | -79.63529 | 570 ft | 22 kts | 50° |
| 2026-05-05 01:04 | 43.68415 | -79.63508 | 571 ft | 22 kts | 320° |
| 2026-05-05 01:04 | 43.68574 | -79.63716 | 575 ft | 37 kts | 316° |
| 2026-05-05 01:05 | 43.68748 | -79.63945 | 582 ft | 13 kts | 325° |
| 2026-05-05 01:05 | 43.68815 | -79.63963 | 580 ft | 9 kts | 29° |
| 2026-05-05 01:05 | 43.68924 | -79.63792 | 579 ft | 29 kts | 42° |
| 2026-05-05 01:05 | 43.68985 | -79.63719 | 580 ft | 1 kts | 49° |
| 2026-05-05 01:06 | 43.68990 | -79.63712 | 577 ft | 0 kts | 49° |
| 2026-05-05 01:07 | 43.69049 | -79.63626 | 574 ft | 8 kts | 47° |
| 2026-05-05 01:08 | 43.69094 | -79.63563 | 572 ft | 10 kts | 45° |
| 2026-05-05 01:08 | 43.69129 | -79.63515 | 570 ft | 5 kts | 46° |
| 2026-05-05 01:08 | 43.69163 | -79.63465 | 570 ft | 11 kts | 41° |
| 2026-05-05 01:08 | 43.69208 | -79.63429 | 567 ft | 0 kts | 18° |
| 2026-05-05 01:10 | 43.69225 | -79.63423 | 569 ft | 15 kts | 11° |
| 2026-05-05 01:10 | 43.69313 | -79.63419 | 568 ft | 7 kts | 358° |
| 2026-05-05 01:10 | 43.69337 | -79.63421 | 565 ft | 0 kts | 355° |
| 2026-05-05 01:12 | 43.69373 | -79.63440 | 564 ft | 9 kts | 316° |
| 2026-05-05 01:12 | 43.69386 | -79.63541 | 565 ft | 2 kts | 234° |
| 2026-05-05 01:13 | 43.69384 | -79.63543 | 566 ft | 0 kts | 228° |
| 2026-05-05 01:14 | 43.69299 | -79.63674 | 569 ft | 52 kts | 227° |
| 2026-05-05 01:14 | 43.68889 | -79.64262 | 575 ft | 117 kts | 227° |
| 2026-05-05 01:14 | 43.68215 | -79.65246 | 697 ft | 153 kts | 226° |
| 2026-05-05 01:15 | 43.67507 | -79.66358 | 1300 ft | 153 kts | 225° |
| 2026-05-05 01:15 | 43.66774 | -79.67272 | 2283 ft | 130 kts | 219° |
| 2026-05-05 01:15 | 43.66068 | -79.68079 | 2908 ft | 139 kts | 221° |
| 2026-05-05 01:15 | 43.65256 | -79.69018 | 3180 ft | 164 kts | 221° |
| 2026-05-05 01:16 | 43.64333 | -79.70100 | 3446 ft | 185 kts | 222° |
| 2026-05-05 01:16 | 43.63254 | -79.71381 | 3755 ft | 220 kts | 222° |
| 2026-05-05 01:16 | 43.62062 | -79.72801 | 4529 ft | 231 kts | 222° |
| 2026-05-05 01:16 | 43.60824 | -79.74280 | 5448 ft | 238 kts | 222° |
| 2026-05-05 01:17 | 43.59574 | -79.75774 | 6298 ft | 242 kts | 223° |
| 2026-05-05 01:17 | 43.58126 | -79.76995 | 6816 ft | 250 kts | 201° |
| 2026-05-05 01:17 | 43.56361 | -79.77118 | 7316 ft | 263 kts | 177° |
| 2026-05-05 01:17 | 43.54549 | -79.76510 | 7838 ft | 271 kts | 171° |
| 2026-05-05 01:18 | 43.52725 | -79.75753 | 8375 ft | 276 kts | 170° |
| 2026-05-05 01:18 | 43.50874 | -79.74964 | 8918 ft | 280 kts | 170° |
| 2026-05-05 01:18 | 43.48999 | -79.74160 | 9471 ft | 284 kts | 170° |
| 2026-05-05 01:18 | 43.47099 | -79.73354 | 9984 ft | 285 kts | 175° |
| 2026-05-05 01:19 | 43.45200 | -79.73381 | 10839 ft | 269 kts | 201° |
| 2026-05-05 01:19 | 43.43556 | -79.74528 | 11676 ft | 268 kts | 219° |
| 2026-05-05 01:19 | 43.42061 | -79.76144 | 12370 ft | 275 kts | 234° |
| 2026-05-05 01:19 | 43.41195 | -79.78482 | 13282 ft | 277 kts | 251° |
| 2026-05-05 01:20 | 43.40306 | -79.80831 | 14070 ft | 288 kts | 240° |
| 2026-05-05 01:20 | 43.39182 | -79.83201 | 14639 ft | 303 kts | 239° |
| 2026-05-05 01:20 | 43.37984 | -79.85640 | 15295 ft | 310 kts | 238° |
| 2026-05-05 01:20 | 43.36752 | -79.88075 | 16243 ft | 311 kts | 238° |
| 2026-05-05 01:21 | 43.35584 | -79.90596 | 17177 ft | 313 kts | 241° |
| 2026-05-05 01:21 | 43.34422 | -79.93172 | 17883 ft | 323 kts | 239° |
| 2026-05-05 01:21 | 43.33190 | -79.95803 | 18533 ft | 329 kts | 239° |
| 2026-05-05 01:21 | 43.31944 | -79.98456 | 19270 ft | 332 kts | 239° |
| 2026-05-05 01:22 | 43.30687 | -80.01136 | 20033 ft | 335 kts | 240° |
| 2026-05-05 01:22 | 43.29422 | -80.03843 | 20763 ft | 338 kts | 240° |
| 2026-05-05 01:22 | 43.28144 | -80.06578 | 21505 ft | 342 kts | 240° |
| 2026-05-05 01:22 | 43.26855 | -80.09337 | 22209 ft | 345 kts | 240° |
| 2026-05-05 01:23 | 43.25571 | -80.12085 | 22592 ft | 347 kts | 240° |
| 2026-05-05 01:23 | 43.24268 | -80.14869 | 22670 ft | 347 kts | 240° |
| 2026-05-05 01:23 | 43.22960 | -80.17658 | 22676 ft | 348 kts | 240° |
| 2026-05-05 01:23 | 43.21649 | -80.20447 | 22669 ft | 348 kts | 240° |
| 2026-05-05 01:24 | 43.20330 | -80.23226 | 22660 ft | 349 kts | 239° |
| 2026-05-05 01:24 | 43.18838 | -80.25862 | 22672 ft | 352 kts | 232° |
| 2026-05-05 01:24 | 43.17124 | -80.28282 | 22674 ft | 354 kts | 229° |
| 2026-05-05 01:24 | 43.15354 | -80.30634 | 22675 ft | 355 kts | 229° |
| 2026-05-05 01:25 | 43.13576 | -80.32973 | 22673 ft | 355 kts | 229° |
| 2026-05-05 01:25 | 43.11797 | -80.35314 | 22675 ft | 355 kts | 229° |
| 2026-05-05 01:25 | 43.10019 | -80.37655 | 22681 ft | 355 kts | 229° |
| 2026-05-05 01:25 | 43.08239 | -80.39999 | 22682 ft | 355 kts | 229° |
| 2026-05-05 01:26 | 43.06462 | -80.42339 | 22682 ft | 355 kts | 229° |
| 2026-05-05 01:26 | 43.04685 | -80.44677 | 22680 ft | 355 kts | 229° |
| 2026-05-05 01:26 | 43.02907 | -80.47016 | 22670 ft | 354 kts | 228° |
| 2026-05-05 01:26 | 43.01126 | -80.49357 | 22687 ft | 355 kts | 228° |
| 2026-05-05 01:27 | 42.99345 | -80.51697 | 22684 ft | 355 kts | 228° |
| 2026-05-05 01:27 | 42.97560 | -80.54039 | 22693 ft | 355 kts | 228° |
| 2026-05-05 01:27 | 42.95777 | -80.56377 | 22686 ft | 355 kts | 228° |
| 2026-05-05 01:27 | 42.93993 | -80.58713 | 22685 ft | 355 kts | 228° |
| 2026-05-05 01:28 | 42.92206 | -80.61046 | 22688 ft | 355 kts | 228° |
| 2026-05-05 01:28 | 42.90445 | -80.63350 | 22686 ft | 355 kts | 228° |
| 2026-05-05 01:28 | 42.88662 | -80.65681 | 22692 ft | 355 kts | 228° |
| 2026-05-05 01:28 | 42.86876 | -80.68013 | 22691 ft | 355 kts | 228° |
| 2026-05-05 01:29 | 42.85091 | -80.70343 | 22690 ft | 355 kts | 228° |
| 2026-05-05 01:29 | 42.83304 | -80.72675 | 22690 ft | 356 kts | 228° |
| 2026-05-05 01:29 | 42.81509 | -80.75013 | 22691 ft | 357 kts | 228° |
| 2026-05-05 01:29 | 42.79708 | -80.77354 | 22691 ft | 357 kts | 228° |
| 2026-05-05 01:30 | 42.77907 | -80.79694 | 22690 ft | 357 kts | 228° |
| 2026-05-05 01:30 | 42.76103 | -80.82036 | 22690 ft | 357 kts | 228° |
| 2026-05-05 01:30 | 42.74328 | -80.84341 | 22692 ft | 358 kts | 228° |
| 2026-05-05 01:30 | 42.72646 | -80.86812 | 22695 ft | 354 kts | 236° |
| 2026-05-05 01:31 | 42.71367 | -80.89641 | 22695 ft | 349 kts | 248° |
| 2026-05-05 01:31 | 42.70612 | -80.92760 | 22694 ft | 347 kts | 259° |
| 2026-05-05 01:31 | 42.70315 | -80.96010 | 22692 ft | 347 kts | 265° |
| 2026-05-05 01:31 | 42.70157 | -80.99287 | 22691 ft | 347 kts | 266° |
| 2026-05-05 01:32 | 42.70017 | -81.02561 | 22692 ft | 347 kts | 266° |
| 2026-05-05 01:32 | 42.69874 | -81.05840 | 22690 ft | 347 kts | 266° |
| 2026-05-05 01:32 | 42.69724 | -81.09119 | 22686 ft | 347 kts | 266° |
| 2026-05-05 01:32 | 42.69570 | -81.12395 | 22686 ft | 347 kts | 266° |
| 2026-05-05 01:33 | 42.69413 | -81.15675 | 22686 ft | 347 kts | 266° |
| 2026-05-05 01:33 | 42.69256 | -81.18907 | 22686 ft | 347 kts | 266° |
| 2026-05-05 01:33 | 42.69096 | -81.22183 | 22674 ft | 347 kts | 266° |
| 2026-05-05 01:33 | 42.68934 | -81.25458 | 22679 ft | 347 kts | 266° |
| 2026-05-05 01:34 | 42.68772 | -81.28734 | 22682 ft | 348 kts | 266° |
| 2026-05-05 01:34 | 42.68608 | -81.32007 | 22678 ft | 347 kts | 266° |
| 2026-05-05 01:34 | 42.68415 | -81.35284 | 22681 ft | 347 kts | 264° |
| 2026-05-05 01:34 | 42.68156 | -81.38546 | 22669 ft | 347 kts | 263° |
| 2026-05-05 01:35 | 42.67881 | -81.41805 | 22671 ft | 347 kts | 263° |
| 2026-05-05 01:35 | 42.67603 | -81.45064 | 22672 ft | 347 kts | 263° |
| 2026-05-05 01:35 | 42.67325 | -81.48322 | 22672 ft | 347 kts | 263° |
| 2026-05-05 01:35 | 42.67050 | -81.51536 | 22661 ft | 347 kts | 263° |
| 2026-05-05 01:36 | 42.66771 | -81.54794 | 22662 ft | 347 kts | 263° |
| 2026-05-05 01:36 | 42.66491 | -81.58052 | 22661 ft | 347 kts | 263° |
| 2026-05-05 01:36 | 42.66210 | -81.61310 | 22662 ft | 347 kts | 263° |
| 2026-05-05 01:36 | 42.65928 | -81.64570 | 22661 ft | 347 kts | 263° |
| 2026-05-05 01:37 | 42.65741 | -81.66728 | 22651 ft | 347 kts | 263° |
| 2026-05-05 01:37 | 42.65459 | -81.69976 | 22650 ft | 346 kts | 263° |
| 2026-05-05 01:37 | 42.65176 | -81.73221 | 22650 ft | 345 kts | 263° |
| 2026-05-05 01:37 | 42.64892 | -81.76464 | 22650 ft | 345 kts | 263° |
| 2026-05-05 01:38 | 42.64608 | -81.79704 | 22650 ft | 345 kts | 263° |
| 2026-05-05 01:38 | 42.64322 | -81.82941 | 22641 ft | 345 kts | 263° |
| 2026-05-05 01:38 | 42.64036 | -81.86185 | 22642 ft | 345 kts | 263° |
| 2026-05-05 01:38 | 42.63748 | -81.89430 | 22642 ft | 345 kts | 263° |
| 2026-05-05 01:39 | 42.63459 | -81.92675 | 22645 ft | 345 kts | 263° |
| 2026-05-05 01:39 | 42.63173 | -81.95873 | 22590 ft | 346 kts | 263° |
| 2026-05-05 01:39 | 42.62885 | -81.99092 | 22562 ft | 339 kts | 263° |
| 2026-05-05 01:39 | 42.62598 | -82.02283 | 22646 ft | 343 kts | 263° |
| 2026-05-05 01:40 | 42.62308 | -82.05507 | 22648 ft | 345 kts | 263° |
| 2026-05-05 01:40 | 42.62015 | -82.08738 | 22461 ft | 343 kts | 263° |
| 2026-05-05 01:40 | 42.61724 | -82.11946 | 21817 ft | 342 kts | 263° |
| 2026-05-05 01:40 | 42.61432 | -82.15155 | 21154 ft | 342 kts | 263° |
| 2026-05-05 01:41 | 42.61140 | -82.18356 | 20593 ft | 340 kts | 262° |
| 2026-05-05 01:41 | 42.60850 | -82.21529 | 20033 ft | 337 kts | 262° |
| 2026-05-05 01:41 | 42.60560 | -82.24682 | 19479 ft | 335 kts | 262° |
| 2026-05-05 01:41 | 42.60271 | -82.27817 | 18903 ft | 333 kts | 262° |
| 2026-05-05 01:42 | 42.59984 | -82.30930 | 18386 ft | 331 kts | 262° |
| 2026-05-05 01:42 | 42.59701 | -82.33978 | 17839 ft | 329 kts | 262° |
| 2026-05-05 01:42 | 42.59416 | -82.37044 | 17266 ft | 326 kts | 262° |
| 2026-05-05 01:42 | 42.59130 | -82.40087 | 16710 ft | 323 kts | 261° |
| 2026-05-05 01:43 | 42.58605 | -82.43030 | 16123 ft | 320 kts | 251° |
| 2026-05-05 01:43 | 42.57802 | -82.45840 | 15578 ft | 318 kts | 248° |
| 2026-05-05 01:43 | 42.56949 | -82.48599 | 15010 ft | 316 kts | 248° |
| 2026-05-05 01:43 | 42.56096 | -82.51328 | 14495 ft | 313 kts | 248° |
| 2026-05-05 01:44 | 42.55249 | -82.54045 | 13953 ft | 311 kts | 248° |
| 2026-05-05 01:44 | 42.54412 | -82.56736 | 13410 ft | 309 kts | 249° |
| 2026-05-05 01:44 | 42.53580 | -82.59414 | 12857 ft | 306 kts | 249° |
| 2026-05-05 01:44 | 42.52756 | -82.62071 | 12279 ft | 304 kts | 249° |
| 2026-05-05 01:45 | 42.51952 | -82.64663 | 11900 ft | 297 kts | 248° |
| 2026-05-05 01:45 | 42.51166 | -82.67186 | 11710 ft | 284 kts | 248° |
| 2026-05-05 01:45 | 42.50409 | -82.69596 | 11539 ft | 272 kts | 248° |
| 2026-05-05 01:45 | 42.49677 | -82.71919 | 11205 ft | 267 kts | 248° |
| 2026-05-05 01:46 | 42.48946 | -82.74237 | 10742 ft | 267 kts | 248° |
| 2026-05-05 01:46 | 42.48220 | -82.76539 | 10314 ft | 265 kts | 248° |
| 2026-05-05 01:46 | 42.47496 | -82.78830 | 9885 ft | 264 kts | 249° |
| 2026-05-05 01:46 | 42.46775 | -82.81109 | 9444 ft | 262 kts | 249° |
| 2026-05-05 01:47 | 42.46058 | -82.83374 | 8992 ft | 260 kts | 249° |
| 2026-05-05 01:47 | 42.45348 | -82.85615 | 8511 ft | 259 kts | 248° |
| 2026-05-05 01:47 | 42.44638 | -82.87853 | 8022 ft | 258 kts | 248° |
| 2026-05-05 01:47 | 42.43932 | -82.90078 | 7567 ft | 257 kts | 248° |
| 2026-05-05 01:48 | 42.43230 | -82.92285 | 7174 ft | 253 kts | 248° |
| 2026-05-05 01:48 | 42.42535 | -82.94472 | 6718 ft | 253 kts | 248° |
| 2026-05-05 01:48 | 42.41838 | -82.96663 | 6238 ft | 253 kts | 248° |
| 2026-05-05 01:48 | 42.41144 | -82.98841 | 5841 ft | 251 kts | 247° |
| 2026-05-05 01:49 | 42.40461 | -83.00984 | 5452 ft | 246 kts | 247° |
| 2026-05-05 01:49 | 42.39793 | -83.03078 | 5085 ft | 242 kts | 247° |
| 2026-05-05 01:49 | 42.39134 | -83.05142 | 4725 ft | 237 kts | 247° |
| 2026-05-05 01:49 | 42.38483 | -83.07180 | 4315 ft | 235 kts | 246° |
| 2026-05-05 01:50 | 42.37839 | -83.09195 | 3935 ft | 231 kts | 246° |
| 2026-05-05 01:50 | 42.37206 | -83.11170 | 3562 ft | 228 kts | 246° |
| 2026-05-05 01:50 | 42.36578 | -83.13135 | 3154 ft | 226 kts | 245° |
| 2026-05-05 01:50 | 42.35967 | -83.15047 | 3003 ft | 217 kts | 245° |
| 2026-05-05 01:51 | 42.35379 | -83.16885 | 3013 ft | 207 kts | 245° |
| 2026-05-05 01:51 | 42.34825 | -83.18617 | 3005 ft | 193 kts | 245° |
| 2026-05-05 01:51 | 42.34340 | -83.20132 | 2993 ft | 160 kts | 245° |
| 2026-05-05 01:51 | 42.33921 | -83.21438 | 3001 ft | 147 kts | 245° |
| 2026-05-05 01:52 | 42.33517 | -83.22686 | 3007 ft | 141 kts | 244° |
| 2026-05-05 01:52 | 42.33071 | -83.23864 | 2998 ft | 143 kts | 239° |
| 2026-05-05 01:52 | 42.32499 | -83.24958 | 3000 ft | 145 kts | 232° |
| 2026-05-05 01:52 | 42.31787 | -83.25935 | 2996 ft | 147 kts | 224° |
| 2026-05-05 01:53 | 42.30938 | -83.26715 | 3018 ft | 144 kts | 217° |
| 2026-05-05 01:53 | 42.30073 | -83.27385 | 2680 ft | 144 kts | 216° |
| 2026-05-05 01:53 | 42.29215 | -83.28032 | 2277 ft | 139 kts | 215° |
| 2026-05-05 01:53 | 42.28363 | -83.28674 | 2073 ft | 142 kts | 213° |
| 2026-05-05 01:54 | 42.27489 | -83.29320 | 1872 ft | 143 kts | 212° |
| 2026-05-05 01:54 | 42.26617 | -83.29969 | 1688 ft | 143 kts | 211° |
| 2026-05-05 01:54 | 42.25746 | -83.30611 | 1490 ft | 143 kts | 211° |
| 2026-05-05 01:54 | 42.24882 | -83.31253 | 1316 ft | 140 kts | 209° |
| 2026-05-05 01:55 | 42.24021 | -83.31888 | 1137 ft | 140 kts | 208° |
| 2026-05-05 01:55 | 42.23183 | -83.32506 | 960 ft | 138 kts | 209° |
| 2026-05-05 01:55 | 42.22357 | -83.33118 | 774 ft | 131 kts | 208° |
| 2026-05-05 01:55 | 42.21590 | -83.33682 | 668 ft | 117 kts | 208° |
| 2026-05-05 01:56 | 42.20951 | -83.34160 | 653 ft | 84 kts | 210° |
| 2026-05-05 01:56 | 42.20713 | -83.34334 | 652 ft | 0 kts | 217° |
| 2026-05-05 01:56 | 42.20671 | -83.34384 | 653 ft | 13 kts | 226° |
| 2026-05-05 01:56 | 42.20607 | -83.34493 | 655 ft | 27 kts | 234° |
| 2026-05-05 01:57 | 42.20560 | -83.34586 | 653 ft | 0 kts | 236° |
| 2026-05-05 01:57 | 42.20498 | -83.34712 | 653 ft | 22 kts | 233° |
| 2026-05-05 01:58 | 42.20365 | -83.34837 | 653 ft | 25 kts | 208° |
| 2026-05-05 01:58 | 42.20208 | -83.34962 | 653 ft | 28 kts | 221° |
| 2026-05-05 01:58 | 42.20172 | -83.35216 | 653 ft | 28 kts | 274° |
| 2026-05-05 01:58 | 42.20172 | -83.35479 | 653 ft | 29 kts | 268° |
| 2026-05-05 01:59 | 42.20166 | -83.35750 | 653 ft | 29 kts | 268° |
| 2026-05-05 01:59 | 42.20166 | -83.35951 | 653 ft | 7 kts | 279° |
| 2026-05-05 01:59 | 42.20167 | -83.35961 | 653 ft | 6 kts | 278° |
| 2026-05-05 01:59 | 42.20163 | -83.36165 | 653 ft | 24 kts | 266° |
| 2026-05-05 02:00 | 42.20186 | -83.36201 | 653 ft | 0 kts | 359° |
| 2026-05-05 02:00 | 42.20225 | -83.36209 | 653 ft | 0 kts | 17° |
| 2026-05-05 02:00 | 42.20239 | -83.36205 | 653 ft | 0 kts | 7° |
| 2026-05-05 02:00 | 42.20240 | -83.36205 | 653 ft | 0 kts | 7° |